Tyndall Air Force Base
KPAM : now visible

Airfield :











YOU CAN JOIN US ON...

 
LOGIN :

Register | Disclaimer

   EN    FR    IT 

 









Legend :    VFR   Marginal VFR   IFR   Intensive IFR   Very Intensive IFR
Visi :
Ceiling :
>= 8 km
>= 3000ft
5 to 8 km
1000 to 3000 ft
1500m to 5 km
500 to 1000 ft
800 to 1500m
200 to 500 ft
< 800m
< 200 ft
Symbols :   Thunderstorms  Fog  Heavy snow  Heavy precipitations  Wind > 20 kt







- Airport Elevation : 17 ft


KPAM - Tyndall Air Force Base

CURRENT METAR :
  • 210356Z AUTO 32005KT 10SM CLR 14/05 A3003 RMK AO2 SLP172 T01370046 $

EXPIRED METARs :
  • 210256Z AUTO 32008KT 10SM CLR 15/04 A3001 RMK AO2 SLP165 T01450039 52027 $
  • 210156Z AUTO 31006KT 10SM CLR 15/04 A2998 RMK AO2 SLP155 T01530037 $

TAF TAF KPAM
Valid from the 20 at 18:00 until the 22 at 00:00 UTC


201800Z 2018/2124 27012G20KT 9999 FEW050 QNH2992INS
TEMPO 2018/2019 28020G30KT
BECMG 2023/2024 30008KT 9999 SKC QNH2993INS TX23/2019Z TN08/2110Z LAST NO AMDS AFT 2018 NEXT 2210
KZJX FIR / North America



MET'MAP, your aeronautical weather chart ! - Copyright ORBIFLY December 2007 - Disclaimer

ORBIFLY MET'MAP TEAM :

Programming & Development : Alexandra Zaïnal
Concept & Development : Baudouin d'Aumeries
Co-Development & Prog : Marc-Olivier Méhu
Technical & hardware support : Manuel Goepfert

Contact : metmap@orbifly.com




SOURCES & CREDITS :

   NOAA       Earth
Advisory